Flight Track Log - Related Links

Times and Time Zones

All times are in EDT time to prevent confusion due to time zone crossing. See the UAL893 flight status page for this flight to view local times or setup timezone preferences in your user account.

Time Position Orientation Groundspeed Altitude Reporting Facility
EDT Latitude Longitude Course Direction KTS MPH feet Rate Location/Type
Sat 02:24:00 PM 37.7217 -122.5267 302° West  Level FlightAware Approximate
Sat 02:25:00 PM 37.7795 -122.6770 295° West  Level FlightAware Approximate
Sat 02:25:17 PM 37.7660 -122.6610 295° West 307 353 5,200  Level FlightAware ADS-B
Sat 02:25:42 PM 37.7860 -122.6970 305° West 312 359 6,200 2,291 Climbing FlightAware ADS-B
Sat 02:26:12 PM 37.8110 -122.7430 305° West 320 368 7,300 2,182 Climbing FlightAware ADS-B
Sat 02:26:37 PM 37.8330 -122.7820 306° West 325 374 8,200 2,267 Climbing FlightAware ADS-B
Sat 02:26:57 PM 37.8500 -122.8140 304° West 329 379 9,000 2,133 Climbing FlightAware ADS-B
Sat 02:27:22 PM 37.8710 -122.8530 304° West 335 386 9,800 1,662 Climbing FlightAware ADS-B
Sat 02:28:02 PM 37.9070 -122.9200 304° West 359 413 10,800 1,341 Climbing FlightAware ADS-B
Sat 02:28:47 PM 37.9520 -123.0020 305° West 390 449 11,700 1,200 Climbing FlightAware ADS-B
Sat 02:29:27 PM 37.9930 -123.0770 305° West 414 476 12,500 1,457 Climbing FlightAware ADS-B
Sat 02:29:57 PM 38.0380 -123.1280 318° Northwest 426 490 13,400 1,971 Climbing FlightAware ADS-B
Sat 02:30:37 PM 38.1130 -123.1640 339° North 433 498 14,800 2,057 Climbing FlightAware ADS-B
Sat 02:31:07 PM 38.1660 -123.1960 335° Northwest 435 501 15,800 2,000 Climbing FlightAware ADS-B
Sat 02:31:37 PM 38.2190 -123.2300 333° Northwest 437 503 16,800 923 Climbing FlightAware ADS-B
Sat 02:32:12 PM 38.2730 -123.2670 332° Northwest 437 503 16,800  Level FlightAware ADS-B
Sat 02:32:42 PM 38.3190 -123.2980 332° Northwest 437 503 16,800  Level FlightAware ADS-B
Sat 02:33:32 PM 38.3950 -123.3490 332° Northwest 437 503 16,800 2,600 Level FlightAware ADS-B
Sat 02:34:12 PM 38.5030 -123.4190 333° Northwest 468 539 20,700 3,300 Climbing FlightAware ADS-B
Sat 02:34:52 PM 38.5800 -123.4700 333° Northwest 468 539 21,200 1,553 Climbing FlightAware ADS-B
Sat 02:35:37 PM 38.6660 -123.5260 333° Northwest 473 544 22,900 1,740 Climbing FlightAware ADS-B
Sat 02:36:32 PM 38.7780 -123.6010 332° Northwest 480 552 24,100 1,145 Climbing FlightAware ADS-B
Sat 02:37:27 PM 38.8800 -123.6690 333° Northwest 488 562 25,000 1,086 Climbing FlightAware ADS-B
Sat 02:38:17 PM 38.9890 -123.7440 332° Northwest 487 560 26,000 877 Climbing FlightAware ADS-B
Sat 02:39:37 PM 39.1290 -123.8780 323° Northwest 492 566 26,900 900 Climbing FlightAware ADS-B
Sat 02:40:17 PM 39.2000 -123.9470 323° Northwest 506 582 27,800 635 Climbing FlightAware ADS-B
Sat 02:41:02 PM 39.2770 -124.0250 322° Northwest 506 582 27,800 1,133 Level FlightAware ADS-B
Sat 02:41:47 PM 39.3730 -124.1180 323° Northwest 505 581 29,500 1,765 Climbing FlightAware ADS-B
Sat 02:42:27 PM 39.4460 -124.1920 322° Northwest 497 572 30,300 1,125 Climbing FlightAware ADS-B
Sat 02:43:07 PM 39.5210 -124.2670 322° Northwest 495 570 31,000 1,059 Climbing FlightAware ADS-B
Sat 02:43:52 PM 39.5970 -124.3440 322° Northwest 489 563 31,800 522 Climbing FlightAware ADS-B
Sat 02:45:02 PM 39.7230 -124.4710 322° Northwest 493 567 32,000 120 Climbing FlightAware ADS-B
Sat 02:45:32 PM 39.7690 -124.5180 322° Northwest 493 567 32,000  Level FlightAware ADS-B
Sat 02:46:12 PM 39.8300 -124.5800 322° Northwest 493 567 32,000  Level FlightAware ADS-B
Sat 02:46:42 PM 39.8760 -124.6260 323° Northwest 493 567 32,000  Level FlightAware ADS-B
Sat 02:47:37 PM 39.9990 -124.7510 322° Northwest 490 564 32,000  Level FlightAware ADS-B
Sat 02:48:12 PM 40.0570 -124.8120 321° Northwest 490 564 32,000  Level FlightAware ADS-B
Sat 02:49:02 PM 40.1320 -124.8920 321° Northwest 490 564 32,000  Level FlightAware ADS-B
Sat 02:49:42 PM 40.1920 -124.9550 321° Northwest 490 564 32,000  Level FlightAware ADS-B
Sat 02:50:22 PM 40.2520 -125.0190 321° Northwest 490 564 32,000  Level FlightAware ADS-B
Sat 02:51:02 PM 40.3120 -125.0820 321° Northwest 490 564 32,000  Level FlightAware ADS-B
Sat 02:51:32 PM 40.3570 -125.1300 321° Northwest 490 564 32,000  Level FlightAware ADS-B
Sat 02:52:22 PM 40.4320 -125.2100 321° Northwest 490 564 32,000  Level FlightAware ADS-B
Sat 02:53:12 PM 40.5060 -125.2890 321° Northwest 490 564 32,000  Level FlightAware ADS-B
Sat 02:53:42 PM 40.5510 -125.3370 321° Northwest 490 564 32,000  Level FlightAware ADS-B
Sat 02:54:22 PM 40.6110 -125.4010 321° Northwest 490 564 32,000  Level FlightAware ADS-B
Sat 02:55:02 PM 40.6710 -125.4650 321° Northwest 490 564 32,000  Level FlightAware ADS-B
Sat 02:55:52 PM 40.7460 -125.5450 321° Northwest 490 564 32,000  Level FlightAware ADS-B
Sat 02:56:22 PM 40.7910 -125.5930 321° Northwest 490 564 32,000  Level FlightAware ADS-B
Sat 02:57:02 PM 40.8510 -125.6570 321° Northwest 490 564 32,000  Level FlightAware ADS-B
Sat 02:57:32 PM 40.8960 -125.7050 321° Northwest 490 564 32,000  Level FlightAware ADS-B
Sat 02:57:55 PM 41.1036 -125.9044 321° Northwest 497 572 32,000  Level Seattle Center
Sat 02:58:22 PM 41.1467 -125.9506 321° Northwest 496 571 32,000  Level Oakland Center
Sat 02:58:56 PM 41.2117 -126.0200 321° Northwest 497 572 32,000  Level Seattle Center
Sat 02:59:57 PM 41.3197 -126.1361 321° Northwest 500 575 32,000  Level Seattle Center
Sat 03:00:24 PM 41.3653 -126.1819 323° Northwest 501 577 32,000  Level Oakland Center
Sat 03:00:58 PM 41.4303 -126.2536 320° Northwest 505 581 32,000  Level Seattle Center
Sat 03:01:59 PM 41.5392 -126.3711 321° Northwest 504 580 32,000  Level Seattle Center
Sat 03:03:00 PM 41.6475 -126.4861 322° Northwest 499 574 32,000  Level Seattle Center
Sat 03:03:28 PM 41.7139 -126.5550 322° Northwest 503 579 32,000  Level Oakland Center
Sat 03:04:30 PM 41.8267 -126.6681 323° Northwest 503 579 32,000  Level Oakland Center
Sat 03:06:00 PM 41.9762 -126.8261 324° Northwest  Level FlightAware Approximate
Sat 03:13:00 PM 42.7146 -127.5642 324° Northwest  Level FlightAware Approximate
Sat 03:14:00 PM 42.8198 -127.6711 323° Northwest  Level FlightAware Approximate
Sat 03:14:01 PM 42.9167 -127.7667 323° Northwest 517 595 32,000  Level Oakland Oceanic (ODAPS)
Sat 03:15:00 PM 42.9248 -127.7783 323° Northwest  Level FlightAware Approximate
Sat 03:16:00 PM 43.0297 -127.8859 323° Northwest  Level FlightAware Approximate
Sat 03:17:00 PM 43.1344 -127.9939 323° Northwest  Level FlightAware Approximate
Sat 03:18:00 PM 43.2391 -128.1022 323° Northwest  Level FlightAware Approximate
Sat 03:19:00 PM 43.3437 -128.2109 323° Northwest  Level FlightAware Approximate
Sat 03:20:00 PM 43.6159 -128.4938 323° Northwest 517 595 32,000  Level FlightAware Transoceanic
Sat 03:21:00 PM 43.7320 -128.6167 323° Northwest 517 595 32,000  Level FlightAware Transoceanic
Sat 03:22:00 PM 43.8479 -128.7400 322° Northwest 517 595 32,000  Level FlightAware Transoceanic
Sat 03:23:00 PM 43.9638 -128.8638 322° Northwest 517 595 32,000  Level FlightAware Transoceanic
Sat 03:24:00 PM 44.0795 -128.9880 322° Northwest 517 595 32,000  Level FlightAware Transoceanic
Sat 03:25:00 PM 44.1950 -129.1128 322° Northwest 517 595 32,000  Level FlightAware Transoceanic
Sat 03:26:00 PM 44.3104 -129.2380 322° Northwest 517 595 32,000  Level FlightAware Transoceanic
Sat 03:27:00 PM 44.4257 -129.3638 322° Northwest 517 595 32,000  Level FlightAware Transoceanic
Sat 03:27:57 PM 44.4833 -129.4333 322° Northwest 532 612 32,000  Level Oakland Oceanic (ODAPS)
Sat 03:28:00 PM 44.5409 -129.4900 322° Northwest 517 595 32,000  Level FlightAware Transoceanic
Sat 03:29:00 PM 44.6558 -129.6167 322° Northwest 517 595 32,000  Level FlightAware Transoceanic
Sat 03:30:00 PM 44.7707 -129.7440 322° Northwest 517 595 32,000  Level FlightAware Transoceanic
Sat 03:31:00 PM 44.8854 -129.8717 322° Northwest 517 595 32,000  Level FlightAware Transoceanic
Sat 03:32:00 PM 45.0000 -130.0000 324° Northwest 517 595 32,000  Level FlightAware Transoceanic
Sat 03:32:36 PM 45.0000 -130.0000 324° Northwest 537 618 32,000  Level Oakland Oceanic (ODAPS)
Sat 03:33:00 PM 45.1187 -130.1213 324° Northwest 517 595 32,000  Level FlightAware Transoceanic
Sat 03:34:00 PM 45.2521 -130.2584 324° Northwest 532 612 32,000  Level FlightAware Transoceanic
Sat 03:35:00 PM 45.3780 -130.3884 324° Northwest 532 612 32,000  Level FlightAware Transoceanic
Sat 03:36:00 PM 45.5037 -130.5190 324° Northwest 532 612 32,000  Level FlightAware Transoceanic
Sat 03:37:00 PM 45.6292 -130.6502 324° Northwest 532 612 32,000  Level FlightAware Transoceanic
Sat 03:38:00 PM 45.7546 -130.7820 324° Northwest 532 612 32,000  Level FlightAware Transoceanic
Sat 03:39:00 PM 45.8283 -130.8598 324° Northwest 537 618 32,000  Level FlightAware Transoceanic
Sat 03:40:00 PM 45.9461 -130.9847 324° Northwest 537 618 32,000  Level FlightAware Transoceanic
Sat 03:41:00 PM 46.0638 -131.1102 323° Northwest 537 618 32,000  Level FlightAware Transoceanic
Sat 03:41:50 PM 46.1333 -131.1833 323° Northwest 553 636 32,000  Level Oakland Oceanic (ODAPS)
Sat 03:42:00 PM 46.1813 -131.2361 323° Northwest 537 618 32,000  Level FlightAware Transoceanic
Sat 03:43:00 PM 46.2987 -131.3627 323° Northwest 537 618 32,000  Level FlightAware Transoceanic
Sat 03:44:00 PM 46.4159 -131.4897 323° Northwest 537 618 32,000  Level FlightAware Transoceanic
Sat 03:45:00 PM 46.5330 -131.6173 323° Northwest 537 618 32,000  Level FlightAware Transoceanic
Sat 03:46:00 PM 46.6500 -131.7455 323° Northwest 537 618 32,000  Level FlightAware Transoceanic
Sat 03:47:00 PM 46.7668 -131.8742 323° Northwest 537 618 32,000  Level FlightAware Transoceanic
Sat 03:48:00 PM 46.8767 -131.9957 323° Northwest 553 636 32,000  Level FlightAware Transoceanic
Sat 03:49:00 PM 47.0000 -132.1333 323° Northwest 553 636 32,000  Level FlightAware Transoceanic
Sat 03:49:05 PM 47.0000 -132.1333 323° Northwest 544 626 32,000  Level Oakland Oceanic (ODAPS)
Sat 03:50:00 PM 47.1224 -132.2698 323° Northwest 553 636 32,000  Level FlightAware Transoceanic
Sat 03:51:00 PM 47.2446 -132.4068 323° Northwest 553 636 32,000  Level FlightAware Transoceanic
Sat 03:52:00 PM 47.3667 -132.5445 323° Northwest 553 636 32,000  Level FlightAware Transoceanic
Sat 03:53:00 PM 47.4886 -132.6828 322° Northwest 553 636 32,000  Level FlightAware Transoceanic
Sat 03:54:00 PM 47.6103 -132.8218 322° Northwest 553 636 32,000  Level FlightAware Transoceanic
Sat 03:55:00 PM 47.7178 -132.9453 322° Northwest 544 626 32,000  Level FlightAware Transoceanic
Sat 03:55:39 PM 47.8333 -133.0833 322° Northwest 548 631 32,000  Level Oakland Oceanic (ODAPS)
Sat 03:56:00 PM 47.8369 -133.0827 322° Northwest 544 626 32,000  Level FlightAware Transoceanic
Sat 03:57:00 PM 47.9558 -133.2209 322° Northwest 544 626 32,000  Level FlightAware Transoceanic
Sat 03:58:00 PM 48.0746 -133.3596 322° Northwest 544 626 32,000  Level FlightAware Transoceanic
Sat 03:59:00 PM 48.1931 -133.4990 322° Northwest 544 626 32,000  Level FlightAware Transoceanic
Sat 04:00:00 PM 48.3115 -133.6391 322° Northwest 544 626 32,000  Level FlightAware Transoceanic
Sat 04:01:00 PM 48.4298 -133.7798 322° Northwest 544 626 32,000  Level FlightAware Transoceanic
Sat 04:02:00 PM 48.5608 -133.9409 322° Northwest 548 631 32,000  Level FlightAware Transoceanic
Sat 04:03:00 PM 48.6815 -134.0862 321° Northwest 548 631 32,000  Level FlightAware Transoceanic
Sat 04:04:00 PM 48.8019 -134.2323 321° Northwest 548 631 32,000  Level FlightAware Transoceanic
Sat 04:05:00 PM 48.9221 -134.3790 321° Northwest 548 631 32,000  Level FlightAware Transoceanic
Sat 04:06:00 PM 49.0422 -134.5264 321° Northwest 548 631 32,000  Level FlightAware Transoceanic
Sat 04:07:00 PM 49.1621 -134.6745 321° Northwest 548 631 32,000  Level FlightAware Transoceanic
Sat 04:08:00 PM 49.2818 -134.8234 321° Northwest 548 631 32,000  Level FlightAware Transoceanic
Sat 04:09:00 PM 49.4013 -134.9730 321° Northwest 548 631 32,000  Level FlightAware Transoceanic
Sat 04:10:00 PM 49.5206 -135.1233 321° Northwest 548 631 32,000  Level FlightAware Transoceanic
Sat 04:10:37 PM 49.5833 -135.2000 321° Northwest 560 644 32,000  Level Oakland Oceanic (ODAPS)
Sat 04:11:00 PM 49.6397 -135.2744 321° Northwest 548 631 32,000  Level FlightAware Transoceanic
Sat 04:12:00 PM 49.7586 -135.4261 320° Northwest 548 631 32,000  Level FlightAware Transoceanic
Sat 04:13:00 PM 49.8773 -135.5787 320° Northwest 548 631 32,000  Level FlightAware Transoceanic
Sat 04:14:00 PM 49.9958 -135.7319 320° Northwest 548 631 32,000  Level FlightAware Transoceanic
Sat 04:15:00 PM 50.1141 -135.8860 320° Northwest 548 631 32,000  Level FlightAware Transoceanic
Sat 04:16:00 PM 50.2322 -136.0408 320° Northwest 548 631 32,000  Level FlightAware Transoceanic
Sat 04:17:00 PM 50.5132 -136.4112 320° Northwest 560 644 32,000  Level FlightAware Transoceanic
Sat 04:18:00 PM 50.6286 -136.5660 320° Northwest 560 644 32,000  Level FlightAware Transoceanic
Sat 04:19:00 PM 50.7437 -136.7215 319° Northwest 560 644 32,000  Level FlightAware Transoceanic
Sat 04:20:00 PM 50.8586 -136.8778 319° Northwest 560 644 32,000  Level FlightAware Transoceanic
Sat 04:21:00 PM 50.9733 -137.0348 319° Northwest 560 644 32,000  Level FlightAware Transoceanic
Sat 04:22:00 PM 51.0878 -137.1926 319° Northwest 560 644 32,000  Level FlightAware Transoceanic
Sat 04:23:00 PM 51.2021 -137.3512 319° Northwest 560 644 32,000  Level FlightAware Transoceanic
Sat 04:23:26 PM 51.2167 -137.3667 319° Northwest 539 620 32,000  Level Oakland Oceanic (ODAPS)
Sat 04:24:00 PM 51.3162 -137.5106 319° Northwest 560 644 32,000  Level FlightAware Transoceanic
Sat 04:25:00 PM 51.4300 -137.6708 319° Northwest 560 644 32,000  Level FlightAware Transoceanic
Sat 04:26:00 PM 51.5437 -137.8318 319° Northwest 560 644 32,000  Level FlightAware Transoceanic
Sat 04:27:00 PM 51.6571 -137.9936 318° Northwest 560 644 32,000  Level FlightAware Transoceanic
Sat 04:28:00 PM 51.7703 -138.1562 318° Northwest 560 644 32,000  Level FlightAware Transoceanic
Sat 04:29:00 PM 51.8923 -138.3296 318° Northwest 539 620 32,000  Level FlightAware Transoceanic
Sat 04:30:00 PM 52.0041 -138.4929 318° Northwest 539 620 32,000  Level FlightAware Transoceanic
Sat 04:31:00 PM 52.1157 -138.6570 318° Northwest 539 620 32,000  Level FlightAware Transoceanic
Sat 04:32:00 PM 52.2270 -138.8219 318° Northwest 539 620 32,000  Level FlightAware Transoceanic
Sat 04:33:00 PM 52.3382 -138.9877 318° Northwest 539 620 32,000  Level FlightAware Transoceanic
Sat 04:34:00 PM 52.4491 -139.1543 317° Northwest 539 620 32,000  Level FlightAware Transoceanic
Sat 04:35:00 PM 52.5597 -139.3217 317° Northwest 539 620 32,000  Level FlightAware Transoceanic
Sat 04:36:00 PM 52.6702 -139.4900 317° Northwest 539 620 32,000  Level FlightAware Transoceanic
Sat 04:37:00 PM 52.7803 -139.6591 317° Northwest 539 620 32,000  Level FlightAware Transoceanic
Sat 04:37:18 PM 52.7167 -139.5667 317° Northwest 529 609 32,000  Level Oakland Oceanic (ODAPS)
Sat 04:38:00 PM 52.8903 -139.8291 317° Northwest 539 620 32,000  Level FlightAware Transoceanic
Sat 04:39:00 PM 53.0000 -140.0000 309° West 539 620 32,000  Level FlightAware Transoceanic
Sat 04:40:00 PM 53.0907 -140.1848 309° West 539 620 32,000  Level FlightAware Transoceanic
Sat 04:40:03 PM 53.0000 -140.0000 309° West 516 594 32,000  Level Oakland Oceanic (ODAPS)
Sat 04:41:00 PM 53.1811 -140.3704 309° West 539 620 32,000  Level FlightAware Transoceanic
Sat 04:42:00 PM 53.2713 -140.5568 309° West 539 620 32,000  Level FlightAware Transoceanic
Sat 04:43:00 PM 53.2759 -140.5664 309° West 529 609 32,000  Level FlightAware Transoceanic
Sat 04:44:00 PM 53.3673 -140.7569 309° West 529 609 32,000  Level FlightAware Transoceanic
Sat 04:45:00 PM 53.4584 -140.9481 309° West 529 609 32,000  Level FlightAware Transoceanic
Sat 04:46:00 PM 53.5399 -141.1206 308° West 516 594 32,000  Level FlightAware Transoceanic
Sat 04:47:00 PM 53.6288 -141.3102 308° West 516 594 32,000  Level FlightAware Transoceanic
Sat 04:48:00 PM 53.7175 -141.5005 308° West 516 594 32,000  Level FlightAware Transoceanic
Sat 04:49:00 PM 53.8059 -141.6916 308° West 516 594 32,000  Level FlightAware Transoceanic
Sat 04:50:00 PM 53.8939 -141.8836 308° West 516 594 32,000  Level FlightAware Transoceanic
Sat 04:51:00 PM 53.9816 -142.0763 308° West 516 594 32,000  Level FlightAware Transoceanic
Sat 04:51:10 PM 53.9833 -142.0833 308° West 510 587 32,000  Level Oakland Oceanic (ODAPS)
Sat 04:52:00 PM 54.0690 -142.2699 307° West 516 594 32,000  Level FlightAware Transoceanic
Sat 04:53:00 PM 54.1562 -142.4643 307° West 516 594 32,000  Level FlightAware Transoceanic
Sat 04:54:00 PM 54.2430 -142.6595 307° West 516 594 32,000  Level FlightAware Transoceanic
Sat 04:55:00 PM 54.3294 -142.8555 307° West 516 594 32,000  Level FlightAware Transoceanic
Sat 04:56:00 PM 54.4156 -143.0524 307° West 516 594 32,000  Level FlightAware Transoceanic
Sat 04:57:00 PM 54.4924 -143.2320 307° West 510 587 32,000  Level FlightAware Transoceanic
Sat 04:58:00 PM 54.5762 -143.4263 307° West 510 587 32,000  Level FlightAware Transoceanic
Sat 04:59:00 PM 54.6596 -143.6213 306° West 510 587 32,000  Level FlightAware Transoceanic
Sat 05:00:00 PM 54.7428 -143.8171 306° West 510 587 32,000  Level FlightAware Transoceanic
Sat 05:01:00 PM 54.8256 -144.0137 306° West 510 587 32,000  Level FlightAware Transoceanic
Sat 05:02:00 PM 54.9081 -144.2112 306° West 510 587 32,000  Level FlightAware Transoceanic
Sat 05:03:00 PM 54.9903 -144.4094 306° West 510 587 32,000  Level FlightAware Transoceanic
Sat 05:04:00 PM 55.0722 -144.6084 306° West 510 587 32,000  Level FlightAware Transoceanic
Sat 05:05:00 PM 55.1537 -144.8083 305° West 510 587 32,000  Level FlightAware Transoceanic
Sat 05:05:03 PM 55.1500 -144.7833 305° West 507 583 32,000  Level Oakland Oceanic (ODAPS)
Sat 05:06:00 PM 55.2349 -145.0090 305° West 510 587 32,000  Level FlightAware Transoceanic
Sat 05:07:00 PM 55.3158 -145.2105 305° West 510 587 32,000  Level FlightAware Transoceanic
Sat 05:08:00 PM 55.3963 -145.4128 305° West 510 587 32,000  Level FlightAware Transoceanic
Sat 05:09:00 PM 55.4765 -145.6160 305° West 510 587 32,000  Level FlightAware Transoceanic
Sat 05:10:00 PM 55.5564 -145.8200 305° West 510 587 32,000  Level FlightAware Transoceanic
Sat 05:11:00 PM 55.6331 -146.0037 304° West 507 583 32,000  Level FlightAware Transoceanic
Sat 05:12:00 PM 55.7124 -146.2100 304° West 507 583 32,000  Level FlightAware Transoceanic
Sat 05:13:00 PM 55.7914 -146.4172 304° West 507 583 32,000  Level FlightAware Transoceanic
Sat 05:14:00 PM 55.8700 -146.6252 304° West 507 583 32,000  Level FlightAware Transoceanic
Sat 05:14:13 PM 55.8667 -146.5833 303° West 490 564 32,000  Level Anchorage Center
Sat 05:15:00 PM 55.9483 -146.8340 304° West 507 583 32,000  Level FlightAware Transoceanic
Sat 05:15:13 PM 55.9333 -146.8000 299° West 480 552 32,000  Level Anchorage Center
Sat 05:16:00 PM 56.0262 -147.0437 304° West 507 583 32,000  Level FlightAware Transoceanic
Sat 05:16:13 PM 56.0167 -147.0000 307° West 490 564 32,000  Level Anchorage Center
Sat 05:17:00 PM 56.1038 -147.2542 303° West 507 583 32,000  Level FlightAware Transoceanic
Sat 05:17:13 PM 56.0833 -147.2000 301° West 490 564 32,000  Level Anchorage Center
Sat 05:18:00 PM 56.1810 -147.4655 303° West 507 583 32,000  Level FlightAware Transoceanic
Sat 05:18:13 PM 56.1667 -147.4000 307° West 490 564 32,000  Level Anchorage Center
Sat 05:19:00 PM 56.2578 -147.6777 303° West 507 583 32,000  Level FlightAware Transoceanic
Sat 05:19:13 PM 56.2333 -147.6167 299° West 480 552 32,000  Level Anchorage Center
Sat 05:20:13 PM 56.3167 -147.8167 307° West 490 564 32,000  Level Anchorage Center
Sat 05:21:13 PM 56.3833 -148.0333 299° West 480 552 32,000  Level Anchorage Center
Sat 05:22:13 PM 56.4667 -148.2333 307° West 480 552 32,000  Level Anchorage Center
Sat 05:23:14 PM 56.5333 -148.4500 299° West 490 564 32,000  Level Anchorage Center
Sat 05:24:14 PM 56.6167 -148.6500 307° West 490 564 32,000  Level Anchorage Center
Sat 05:25:14 PM 56.6833 -148.8667 299° West 490 564 32,000  Level Anchorage Center
Sat 05:26:14 PM 56.7500 -149.0833 299° West 490 564 32,000  Level Anchorage Center
Sat 05:27:14 PM 56.8333 -149.3000 305° West 500 575 32,000  Level Anchorage Center
Sat 05:28:14 PM 56.9000 -149.5167 299° West 500 575 32,000  Level Anchorage Center
Sat 05:29:14 PM 56.9667 -149.7333 300° West 500 575 32,000  Level Anchorage Center
Sat 05:30:14 PM 57.0500 -149.9500 305° West 500 575 32,000  Level Anchorage Center
Sat 05:31:14 PM 57.1167 -150.1833 298° West 490 564 32,000  Level Anchorage Center
Sat 05:32:15 PM 57.1833 -150.4000 300° West 500 575 32,000  Level Anchorage Center
Sat 05:33:15 PM 57.2667 -150.6167 305° West 500 575 32,000  Level Anchorage Center
Sat 05:34:15 PM 57.3333 -150.8500 298° West 500 575 32,000  Level Anchorage Center
Sat 05:35:15 PM 57.4000 -151.0833 298° West 500 575 32,000  Level Anchorage Center
Sat 05:36:15 PM 57.4833 -151.3000 306° West 500 575 32,000  Level Anchorage Center
Sat 05:37:15 PM 57.5500 -151.5333 298° West 500 575 32,000  Level Anchorage Center
Sat 05:38:15 PM 57.6167 -151.7667 298° West 510 587 32,000  Level Anchorage Center
Sat 05:39:15 PM 57.6833 -151.9833 300° West 500 575 32,000  Level Anchorage Center
Sat 05:40:15 PM 57.7500 -152.2167 298° West 500 575 32,000  Level Anchorage Center
Sat 05:41:15 PM 57.8167 -152.4500 298° West 500 575 32,000  Level Anchorage Center
Sat 05:42:16 PM 57.8500 -152.7000 284° West 490 564 32,000  Level Anchorage Center
Sat 05:43:16 PM 57.9000 -152.9500 291° West 490 564 32,000  Level Anchorage Center
Sat 05:44:16 PM 57.9500 -153.2000 291° West 490 564 32,000  Level Anchorage Center
Sat 05:45:16 PM 58.0000 -153.4333 292° West 490 564 32,000  Level Anchorage Center
Sat 05:46:16 PM 58.0333 -153.6833 284° West 500 575 32,000  Level Anchorage Center
Sat 05:47:16 PM 58.0833 -153.9333 291° West 490 564 32,000  Level Anchorage Center
Sat 05:48:16 PM 58.1333 -154.1833 291° West 490 564 32,000  Level Anchorage Center
Sat 05:49:16 PM 58.1833 -154.4333 291° West 500 575 32,000  Level Anchorage Center
Sat 05:50:17 PM 58.2167 -154.7000 283° West 510 587 32,000  Level Anchorage Center
Sat 05:51:16 PM 58.2667 -154.9500 291° West 490 564 32,000  Level Anchorage Center
Sat 05:52:17 PM 58.3000 -155.2000 284° West 490 564 32,000  Level Anchorage Center
Sat 05:53:17 PM 58.3500 -155.4333 292° West 480 552 32,000  Level Anchorage Center
Sat 05:54:17 PM 58.3833 -155.6833 284° West 480 552 32,000  Level Anchorage Center
Sat 05:55:17 PM 58.4333 -155.9333 291° West 480 552 32,000  Level Anchorage Center
Sat 05:56:17 PM 58.4667 -156.1333 288° West 480 552 32,000  Level Anchorage Center
Sat 05:57:17 PM 58.5000 -156.4333 282° West 490 564 32,000  Level Anchorage Center
Sat 05:58:17 PM 58.5333 -156.6333 288° West 490 564 32,000  Level Anchorage Center
Sat 05:59:18 PM 58.5833 -156.9333 288° West 480 552 32,000  Level Anchorage Center
Sat 06:01:18 PM 58.6667 -157.4167 289° West 490 564 32,000  Level Anchorage Center
Sat 06:02:18 PM 58.7000 -157.6667 284° West 490 564 32,000  Level Anchorage Center
Sat 06:03:18 PM 58.7333 -157.9167 285° West 490 564 32,000  Level Anchorage Center
Sat 06:04:18 PM 58.7667 -158.1833 284° West 490 564 32,000  Level Anchorage Center
Sat 06:05:18 PM 58.8000 -158.4333 285° West 490 564 32,000  Level Anchorage Center
Sat 06:06:18 PM 58.8333 -158.6833 285° West 480 552 32,000  Level Anchorage Center
Sat 06:07:18 PM 58.8667 -158.9500 284° West 480 552 32,000  Level Anchorage Center
Sat 06:08:18 PM 58.9000 -159.2000 285° West 480 552 32,000  Level Anchorage Center
Sat 06:09:18 PM 58.9500 -159.4500 291° West 490 564 32,000  Level Anchorage Center
Sat 06:10:19 PM 58.9667 -159.7000 277° West 480 552 32,000  Level Anchorage Center
Sat 06:11:19 PM 59.0000 -159.9667 284° West 490 564 32,000  Level Anchorage Center
Sat 06:12:19 PM 59.0167 -160.2333 277° West 490 564 32,000  Level Anchorage Center
Sat 06:13:19 PM 59.0333 -160.5000 277° West 490 564 32,000  Level Anchorage Center
Sat 06:14:19 PM 59.0333 -160.7667 270° West 490 564 32,000  Level Anchorage Center
Sat 06:15:19 PM 59.0500 -161.0333 277° West 490 564 32,000  Level Anchorage Center
Sat 06:16:19 PM 59.0500 -161.2833 270° West 480 552 32,000  Level Anchorage Center
Sat 06:17:19 PM 59.0667 -161.5500 277° West 490 564 32,000  Level Anchorage Center
Sat 06:18:19 PM 59.0667 -161.8167 270° West 480 552 32,000  Level Anchorage Center
Sat 06:19:20 PM 59.0667 -162.0833 270° West 490 564 32,000  Level Anchorage Center
Sat 06:20:19 PM 59.0833 -162.3500 277° West 500 575 32,000  Level Anchorage Center
Sat 06:21:20 PM 59.0833 -162.6000 270° West 480 552 32,000  Level Anchorage Center
Sat 06:22:20 PM 59.0833 -162.8667 270° West 490 564 32,000  Level Anchorage Center
Sat 06:23:20 PM 59.1000 -163.1333 277° West 490 564 32,000  Level Anchorage Center
Sat 06:24:20 PM 59.1000 -163.4167 270° West 500 575 32,000  Level Anchorage Center
Sat 06:25:20 PM 59.1000 -163.7167 270° West 480 552 32,000  Level Anchorage Center
Sat 06:26:20 PM 59.1000 -163.9833 270° West 490 564 32,000  Level Anchorage Center
Sat 06:28:20 PM 59.1000 -164.4667 270° West 490 564 32,000  Level Anchorage Center
Sat 06:29:20 PM 59.1000 -164.7333 270° West 480 552 32,000  Level Anchorage Center
Sat 06:30:20 PM 59.1000 -165.0000 270° West 490 564 32,000  Level Anchorage Center
Sat 06:31:20 PM 59.1000 -165.2667 270° West 490 564 32,000  Level Anchorage Center
Sat 06:32:20 PM 59.1000 -165.5333 270° West 490 564 32,000  Level Anchorage Center
Sat 06:33:21 PM 59.1000 -165.8500 270° West 480 552 32,000  Level Anchorage Center
Sat 06:34:21 PM 59.1000 -166.1167 270° West 480 552 32,000  Level Anchorage Center
Sat 06:34:44 PM 59.1000 -166.1667 270° West 480 552 32,000  Level Anchorage Center
Sat 06:35:44 PM 59.1000 -166.4333 270° West 480 552 32,000  Level Anchorage Center
Sat 06:36:44 PM 59.1000 -166.7000 270° West 490 564 32,000  Level Anchorage Center
Sat 06:37:44 PM 59.1000 -167.0000 270° West 470 541 32,000 50 Level Anchorage Center
Sat 06:38:44 PM 59.0833 -167.2667 263° West 480 552 32,100 200 Climbing Anchorage Center
Sat 06:39:44 PM 59.0833 -167.5167 270° West 480 552 32,400 300 Climbing Anchorage Center
Sat 06:40:44 PM 59.0833 -167.7833 270° West 490 564 32,700 300 Climbing Anchorage Center
Sat 06:41:44 PM 59.0667 -168.0500 263° West 490 564 33,000 298 Climbing Anchorage Center
Sat 06:42:45 PM 59.0667 -168.3167 270° West 490 564 33,300 300 Climbing Anchorage Center
Sat 06:43:44 PM 59.0500 -168.5667 263° West 470 541 33,600 353 Climbing Anchorage Center
Sat 06:44:44 PM 59.0500 -168.8333 270° West 480 552 34,000 198 Climbing Anchorage Center
Sat 06:45:45 PM 59.0333 -169.1000 263° West 490 564 34,000  Level Anchorage Center
Sat 06:46:45 PM 59.0333 -169.3833 270° West 490 564 34,000  Level Anchorage Center
Sat 06:47:45 PM 59.0167 -169.6333 263° West 480 552 34,000  Level Anchorage Center
Sat 06:48:45 PM 59.0000 -169.9000 263° West 480 552 34,000  Level Anchorage Center
Sat 06:49:45 PM 58.9667 -170.1500 256° West 490 564 34,000  Level Anchorage Center
Sat 06:50:45 PM 58.9333 -170.4000 256° West 480 552 34,000  Level Anchorage Center
Sat 06:51:45 PM 58.8833 -170.6667 250° West 490 564 34,000  Level Anchorage Center
Sat 06:52:45 PM 58.8500 -170.9167 256° West 480 552 34,000  Level Anchorage Center
Sat 06:53:45 PM 58.8167 -171.1667 256° West 490 564 34,000  Level Anchorage Center
Sat 06:54:45 PM 58.7667 -171.4000 248° West 470 541 34,000  Level Anchorage Center
Sat 06:55:45 PM 58.7333 -171.6500 256° West 470 541 34,000  Level Anchorage Center
Sat 06:56:45 PM 58.6833 -171.8833 248° West 470 541 34,000  Level Anchorage Center
Sat 06:57:45 PM 58.6500 -172.1333 256° West 470 541 34,000  Level Anchorage Center
Sat 06:58:45 PM 58.6000 -172.3667 248° West 470 541 34,000  Level Anchorage Center
Sat 06:59:45 PM 58.5667 -172.6167 256° West 480 552 34,000  Level Anchorage Center
Sat 07:00:45 PM 58.5167 -172.8500 248° West 480 552 34,000  Level Anchorage Center
Sat 07:01:46 PM 58.4833 -173.0833 255° West 470 541 34,000  Level Anchorage Center
Sat 07:02:46 PM 58.4333 -173.3333 249° West 480 552 34,000  Level Anchorage Center
Sat 07:03:46 PM 58.4000 -173.5667 255° West 470 541 34,000  Level Anchorage Center
Sat 07:04:46 PM 58.3500 -173.8000 248° West 470 541 34,000  Level Anchorage Center
Sat 07:05:46 PM 58.3000 -174.0333 248° West 470 541 34,000  Level Anchorage Center
Sat 07:06:46 PM 58.2500 -174.2833 249° West 470 541 34,000  Level Anchorage Center
Sat 07:07:46 PM 58.2167 -174.5167 255° West 470 541 34,000  Level Anchorage Center
Sat 07:08:46 PM 58.1667 -174.7500 248° West 480 552 34,000  Level Anchorage Center
Sat 07:09:46 PM 58.1167 -174.9833 248° West 470 541 34,000  Level Anchorage Center
Sat 07:10:46 PM 58.0667 -175.2167 248° West 470 541 34,000  Level Anchorage Center
Sat 07:11:46 PM 58.0333 -175.4000 251° West 470 541 34,000  Level Anchorage Center
Sat 07:12:46 PM 57.9833 -175.6333 248° West 470 541 34,000  Level Anchorage Center
Sat 07:13:46 PM 57.9333 -175.8500 247° West 470 541 34,000  Level Anchorage Center
Sat 07:14:46 PM 57.9000 -176.0833 255° West 470 541 34,000  Level Anchorage Center
Sat 07:15:46 PM 57.8500 -176.3167 248° West 470 541 34,000  Level Anchorage Center
Sat 07:16:46 PM 57.8000 -176.5500 248° West 440 506 34,000  Level Anchorage Center
Sat 07:19:00 PM 57.7387 -176.8354 248° West  Level FlightAware Approximate
Sat 07:26:00 PM 57.3785 -178.4369 248° West  Level FlightAware Approximate
Sat 07:27:00 PM 57.3254 -178.6631 247° West  Level FlightAware Approximate
Sat 07:27:23 PM 57.2667 -178.9333 246° West 461 531 34,000  Level Anchorage Center
Sat 07:28:00 PM 57.2719 -178.8886 246° West  Level FlightAware Approximate
Sat 07:29:00 PM 57.2180 -179.1134 246° West  Level FlightAware Approximate
Sat 07:30:00 PM 57.1637 -179.3376 246° West  Level FlightAware Approximate
Sat 07:31:00 PM 57.1090 -179.5612 246° West  Level FlightAware Approximate
Sat 07:32:00 PM 57.0539 -179.7841 246° West  Level FlightAware Approximate
Sat 07:32:21 PM 57.0000 180.0000 249° West 479 551 34,000  Level Anchorage Center
Sat 07:33:00 PM 56.9484 179.7592 248° West 461 531 34,000  Level FlightAware Transoceanic
Sat 07:34:00 PM 56.8963 179.5191 248° West 461 531 34,000  Level FlightAware Transoceanic
Sat 07:35:00 PM 56.8438 179.2796 248° West 461 531 34,000  Level FlightAware Transoceanic
Sat 07:36:00 PM 56.7908 179.0408 248° West 461 531 34,000  Level FlightAware Transoceanic
Sat 07:36:59 PM 56.7667 178.9667 248° West 486 559 34,000  Level Anchorage Center
Sat 07:37:00 PM 56.7373 178.8027 248° West 461 531 34,000  Level FlightAware Transoceanic
Sat 07:38:00 PM 56.7009 178.6422 247° West 479 551 34,000  Level FlightAware Transoceanic
Sat 07:39:00 PM 56.6497 178.4181 247° West 479 551 34,000  Level FlightAware Transoceanic
Sat 07:40:00 PM 56.5980 178.1945 247° West 479 551 34,000  Level FlightAware Transoceanic
Sat 07:41:00 PM 56.5459 177.9716 247° West 479 551 34,000  Level FlightAware Transoceanic
Sat 07:42:00 PM 56.4935 177.7492 247° West 479 551 34,000  Level FlightAware Transoceanic
Sat 07:43:00 PM 56.4535 177.6074 247° West 486 559 34,000  Level FlightAware Transoceanic
Sat 07:44:00 PM 56.3999 177.3830 247° West 486 559 34,000  Level FlightAware Transoceanic
Sat 07:45:00 PM 56.3459 177.1593 246° West 486 559 34,000  Level FlightAware Transoceanic
Sat 07:46:00 PM 56.2915 176.9362 246° West 486 559 34,000  Level FlightAware Transoceanic
Sat 07:46:35 PM 56.2667 176.8333 246° West 482 555 34,000  Level Anchorage Center
Sat 07:47:00 PM 56.2366 176.7138 246° West 486 559 34,000  Level FlightAware Transoceanic
Sat 07:48:00 PM 56.1814 176.4919 246° West 486 559 34,000  Level FlightAware Transoceanic
Sat 07:49:00 PM 56.1258 176.2708 246° West 486 559 34,000  Level FlightAware Transoceanic
Sat 07:49:38 PM 56.0833 176.1667 244° Southwest 480 552 34,000  Level Anchorage Center
Sat 07:50:00 PM 56.0698 176.0503 245° Southwest 486 559 34,000  Level FlightAware Transoceanic
Sat 07:50:38 PM 56.0500 175.9667 253° West 490 564 34,000  Level Anchorage Center
Sat 07:51:00 PM 56.0134 175.8304 245° Southwest 486 559 34,000  Level FlightAware Transoceanic
Sat 07:51:38 PM 55.9833 175.7333 243° Southwest 460 529 34,000  Level Anchorage Center
Sat 07:52:00 PM 55.9375 175.5364 245° Southwest 482 555 34,000  Level FlightAware Transoceanic
Sat 07:52:38 PM 55.9167 175.5000 243° Southwest 470 541 34,000  Level Anchorage Center
Sat 07:53:00 PM 55.8813 175.3224 245° Southwest 482 555 34,000  Level FlightAware Transoceanic
Sat 07:53:38 PM 55.8667 175.3000 246° West 490 564 34,000  Level Anchorage Center
Sat 07:54:00 PM 55.8247 175.1090 245° Southwest 482 555 34,000  Level FlightAware Transoceanic
Sat 07:54:39 PM 55.8000 175.0833 241° Southwest 470 541 34,000  Level Anchorage Center
Sat 07:55:00 PM 55.7678 174.8963 244° Southwest 482 555 34,000  Level FlightAware Transoceanic
Sat 07:55:39 PM 55.7500 174.8833 246° West 480 552 34,000 727 Level Anchorage Center
Sat 07:56:39 PM 55.7000 174.6500 249° West 490 564 35,200 1,000 Climbing Anchorage Center
Sat 07:57:39 PM 55.6500 174.4667 244° Southwest 480 552 36,000 400 Climbing Anchorage Center
Sat 07:58:39 PM 55.5833 174.2167 245° Southwest 500 575 36,000  Level Anchorage Center
Sat 07:59:39 PM 55.5167 174.0333 237° Southwest 490 564 36,000  Level Anchorage Center
Sat 08:00:39 PM 55.4500 173.8000 243° Southwest 490 564 36,000  Level Anchorage Center
Sat 08:01:39 PM 55.3833 173.5667 243° Southwest 500 575 36,000  Level Anchorage Center
Sat 08:02:39 PM 55.3333 173.3667 246° West 500 575 36,000  Level Anchorage Center
Sat 08:03:39 PM 55.2667 173.1333 243° Southwest 500 575 36,000  Level Anchorage Center
Sat 08:04:39 PM 55.2167 172.9333 246° West 510 587 36,000  Level Anchorage Center
Sat 08:05:39 PM 55.1333 172.7000 238° Southwest 510 587 36,000  Level Anchorage Center
Sat 08:06:39 PM 55.0833 172.5167 245° Southwest 510 587 36,000  Level Anchorage Center
Sat 08:07:40 PM 55.0167 172.2667 245° Southwest 520 598 36,000  Level Anchorage Center
Sat 08:08:39 PM 54.9333 172.0333 238° Southwest 510 587 36,000  Level Anchorage Center
Sat 08:09:39 PM 54.9000 171.8167 255° West 520 598 36,000  Level Anchorage Center
Sat 08:10:40 PM 54.8833 171.5500 264° West 530 610 36,000  Level Anchorage Center
Sat 08:11:40 PM 54.8667 171.3333 262° West 520 598 36,000  Level Anchorage Center
Sat 08:12:40 PM 54.8333 171.0667 258° West 530 610 36,000  Level Anchorage Center
Sat 08:13:40 PM 54.8167 170.8500 262° West 520 598 36,000  Level Anchorage Center
Sat 08:14:40 PM 54.7833 170.5833 258° West 520 598 36,000  Level Anchorage Center
Sat 08:15:40 PM 54.7667 170.3167 264° West 510 587 36,000  Level Anchorage Center
Sat 08:17:40 PM 54.7667 169.8333 270° West 520 598 36,000  Level Anchorage Center
Sat 08:18:40 PM 54.8000 169.6333 286° West 510 587 36,000  Level Anchorage Center
Sat 08:19:40 PM 54.8167 169.3500 276° West 530 610 36,000  Level Anchorage Center
Sat 08:20:40 PM 54.8500 169.1333 285° West 520 598 36,000  Level Anchorage Center
Sat 08:21:40 PM 54.8833 168.8667 282° West 530 610 36,000  Level Anchorage Center
Sat 08:22:41 PM 54.9000 168.6500 278° West 520 598 36,000  Level Anchorage Center
Sat 08:23:40 PM 54.9333 168.4333 285° West 520 598 36,000 15 Level Anchorage Center
Sat 08:25:00 PM 54.9661 168.1302 281° West  Level FlightAware Approximate
Sat 08:32:00 PM 54.7800 166.6283 243° Southwest  Level FlightAware Approximate
Sat 08:33:00 PM 54.7183 166.4245 242° Southwest  Level FlightAware Approximate
Sat 08:34:00 PM 54.6562 166.2213 242° Southwest  Level FlightAware Approximate
Sat 08:35:00 PM 54.5938 166.0187 242° Southwest  Level FlightAware Approximate
Sat 08:36:00 PM 54.5310 165.8168 242° Southwest  Level FlightAware Approximate
Sat 08:37:00 PM 54.4679 165.6154 242° Southwest  Level FlightAware Approximate
Sat 08:38:00 PM 54.4044 165.4147 242° Southwest  Level FlightAware Approximate
Sat 08:39:00 PM 54.3407 165.2146 241° Southwest  Level FlightAware Approximate
Sat 08:40:00 PM 54.2766 165.0151 241° Southwest  Level FlightAware Approximate
Sat 08:41:00 PM 54.2121 164.8163 241° Southwest  Level FlightAware Approximate
Sat 08:42:00 PM 54.1474 164.6181 241° Southwest  Level FlightAware Approximate
Sat 08:43:00 PM 54.0823 164.4204 241° Southwest  Level FlightAware Approximate
Sat 08:44:00 PM 54.0169 164.2234 241° Southwest  Level FlightAware Approximate
Sat 08:45:00 PM 53.9512 164.0271 240° Southwest  Level FlightAware Approximate
Sat 08:46:00 PM 53.8851 163.8313 240° Southwest  Level FlightAware Approximate
Sat 08:47:00 PM 53.8188 163.6362 240° Southwest  Level FlightAware Approximate
Sat 08:48:00 PM 53.7521 163.4417 240° Southwest  Level FlightAware Approximate
Sat 08:49:00 PM 53.6851 163.2478 240° Southwest  Level FlightAware Approximate
Sat 08:50:00 PM 53.6178 163.0545 240° Southwest  Level FlightAware Approximate
Sat 08:51:00 PM 53.5502 162.8618 239° Southwest  Level FlightAware Approximate
Sat 08:52:00 PM 53.4823 162.6698 239° Southwest  Level FlightAware Approximate
Sat 08:53:00 PM 53.4141 162.4784 239° Southwest  Level FlightAware Approximate
Sat 08:54:00 PM 53.3491 162.2855 264° West  Level FlightAware Approximate
Sat 08:55:00 PM 53.3345 162.0643 264° West  Level FlightAware Approximate
Sat 08:56:00 PM 53.3195 161.8433 264° West  Level FlightAware Approximate
Sat 08:57:00 PM 53.3040 161.6224 263° West  Level FlightAware Approximate
Sat 08:58:00 PM 53.2882 161.4017 263° West  Level FlightAware Approximate
Sat 08:59:00 PM 53.2720 161.1811 263° West  Level FlightAware Approximate
Sat 09:00:00 PM 53.2555 160.9629 263° West  Level FlightAware Approximate
Sat 09:01:00 PM 53.2386 160.7448 263° West  Level FlightAware Approximate
Sat 09:02:00 PM 53.2214 160.5270 263° West  Level FlightAware Approximate
Sat 09:03:00 PM 53.2037 160.3096 262° West  Level FlightAware Approximate
Sat 09:04:00 PM 53.1857 160.0924 262° West  Level FlightAware Approximate
Sat 09:05:00 PM 53.1673 159.8754 262° West  Level FlightAware Approximate
Sat 09:06:00 PM 53.1484 159.6586 262° West  Level FlightAware Approximate
Sat 09:07:00 PM 53.1292 159.4419 262° West  Level FlightAware Approximate
Sat 09:08:00 PM 53.1096 159.2255 262° West  Level FlightAware Approximate
Sat 09:09:00 PM 53.0896 159.0092 261° West  Level FlightAware Approximate
Sat 09:10:00 PM 53.0692 158.7929 261° West  Level FlightAware Approximate
Sat 09:11:00 PM 53.0484 158.5767 261° West  Level FlightAware Approximate
Sat 09:12:00 PM 53.0272 158.3608 261° West  Level FlightAware Approximate
Sat 09:13:00 PM 53.0056 158.1451 261° West  Level FlightAware Approximate
Sat 09:14:00 PM 52.9836 157.9296 260° West  Level FlightAware Approximate
Sat 09:15:00 PM 52.9612 157.7143 260° West  Level FlightAware Approximate
Sat 09:16:00 PM 52.9384 157.4992 260° West  Level FlightAware Approximate
Sat 09:17:00 PM 52.9153 157.2844 260° West  Level FlightAware Approximate
Sat 09:18:00 PM 52.8918 157.0698 260° West  Level FlightAware Approximate
Sat 09:19:00 PM 52.8678 156.8554 260° West  Level FlightAware Approximate
Sat 09:20:00 PM 52.8435 156.6413 259° West  Level FlightAware Approximate
Sat 09:21:00 PM 52.8188 156.4274 259° West  Level FlightAware Approximate
Sat 09:22:00 PM 52.7793 156.2250 231° Southwest  Level FlightAware Approximate
Sat 09:23:00 PM 52.6956 156.0573 231° Southwest  Level FlightAware Approximate
Sat 09:24:00 PM 52.6117 155.8903 230° Southwest  Level FlightAware Approximate
Sat 09:25:00 PM 52.5266 155.7253 230° Southwest  Level FlightAware Approximate
Sat 09:26:00 PM 52.4412 155.5609 230° Southwest  Level FlightAware Approximate
Sat 09:27:00 PM 52.3556 155.3972 229° Southwest  Level FlightAware Approximate
Sat 09:28:00 PM 52.2698 155.2341 229° Southwest  Level FlightAware Approximate
Sat 09:29:00 PM 52.1837 155.0716 229° Southwest  Level FlightAware Approximate
Sat 09:30:00 PM 52.0975 154.9097 229° Southwest  Level FlightAware Approximate
Sat 09:31:00 PM 52.0110 154.7485 229° Southwest  Level FlightAware Approximate
Sat 09:32:00 PM 51.9243 154.5879 229° Southwest  Level FlightAware Approximate
Sat 09:33:00 PM 51.8374 154.4279 229° Southwest  Level FlightAware Approximate
Sat 09:34:00 PM 51.7502 154.2686 229° Southwest  Level FlightAware Approximate
Sat 09:35:00 PM 51.6629 154.1098 228° Southwest  Level FlightAware Approximate
Sat 09:36:00 PM 51.5750 153.9521 228° Southwest  Level FlightAware Approximate
Sat 09:37:00 PM 51.4869 153.7950 228° Southwest  Level FlightAware Approximate
Sat 09:38:00 PM 51.3986 153.6385 228° Southwest  Level FlightAware Approximate
Sat 09:39:00 PM 51.3101 153.4826 228° Southwest  Level FlightAware Approximate
Sat 09:40:00 PM 51.2214 153.3273 228° Southwest  Level FlightAware Approximate
Sat 09:41:00 PM 51.1325 153.1726 228° Southwest  Level FlightAware Approximate
Sat 09:42:00 PM 51.0434 153.0185 227° Southwest  Level FlightAware Approximate
Sat 09:43:00 PM 50.9541 152.8650 227° Southwest  Level FlightAware Approximate
Sat 09:44:00 PM 50.8646 152.7121 227° Southwest  Level FlightAware Approximate
Sat 09:45:00 PM 50.7749 152.5598 227° Southwest  Level FlightAware Approximate
Sat 09:46:00 PM 50.6850 152.4081 227° Southwest  Level FlightAware Approximate
Sat 09:47:00 PM 50.5949 152.2569 227° Southwest  Level FlightAware Approximate
Sat 09:48:00 PM 50.5046 152.1063 227° Southwest  Level FlightAware Approximate
Sat 09:49:00 PM 50.4141 151.9563 227° Southwest  Level FlightAware Approximate
Sat 09:50:00 PM 50.3234 151.8069 226° Southwest  Level FlightAware Approximate
Sat 09:51:00 PM 50.2325 151.6580 226° Southwest  Level FlightAware Approximate
Sat 09:52:00 PM 50.1415 151.5097 226° Southwest  Level FlightAware Approximate
Sat 09:53:00 PM 50.0502 151.3619 226° Southwest  Level FlightAware Approximate
Sat 09:54:00 PM 49.9588 151.2148 226° Southwest  Level FlightAware Approximate
Sat 09:55:00 PM 49.8672 151.0681 226° Southwest  Level FlightAware Approximate
Sat 09:56:00 PM 49.7754 150.9221 226° Southwest  Level FlightAware Approximate
Sat 09:57:00 PM 49.6834 150.7766 226° Southwest  Level FlightAware Approximate
Sat 09:58:00 PM 49.5912 150.6316 226° Southwest  Level FlightAware Approximate
Sat 09:59:00 PM 49.4989 150.4872 225° Southwest  Level FlightAware Approximate
Sat 10:00:00 PM 49.4063 150.3434 225° Southwest  Level FlightAware Approximate
Sat 10:01:00 PM 49.3138 150.2002 225° Southwest  Level FlightAware Approximate
Sat 10:02:00 PM 49.2210 150.0577 225° Southwest  Level FlightAware Approximate
Sat 10:03:00 PM 49.1281 149.9156 225° Southwest  Level FlightAware Approximate
Sat 10:04:00 PM 49.0350 149.7741 225° Southwest  Level FlightAware Approximate
Sat 10:05:00 PM 48.9418 149.6331 225° Southwest  Level FlightAware Approximate
Sat 10:06:00 PM 48.8484 149.4926 225° Southwest  Level FlightAware Approximate
Sat 10:07:00 PM 48.7548 149.3526 225° Southwest  Level FlightAware Approximate
Sat 10:08:00 PM 48.6610 149.2132 225° Southwest  Level FlightAware Approximate
Sat 10:09:00 PM 48.5671 149.0743 224° Southwest  Level FlightAware Approximate
Sat 10:10:00 PM 48.4730 148.9359 224° Southwest  Level FlightAware Approximate
Sat 10:11:00 PM 48.3787 148.7980 224° Southwest  Level FlightAware Approximate
Sat 10:12:00 PM 48.2843 148.6606 224° Southwest  Level FlightAware Approximate
Sat 10:13:00 PM 48.1897 148.5237 224° Southwest  Level FlightAware Approximate
Sat 10:14:00 PM 48.0950 148.3873 224° Southwest  Level FlightAware Approximate
Sat 10:15:00 PM 48.0001 148.2515 224° Southwest  Level FlightAware Approximate
Sat 10:16:00 PM 47.9050 148.1161 224° Southwest  Level FlightAware Approximate
Sat 10:17:00 PM 47.8098 147.9812 224° Southwest  Level FlightAware Approximate
Sat 10:18:00 PM 47.7144 147.8468 223° Southwest  Level FlightAware Approximate
Sat 10:19:00 PM 47.6189 147.7130 223° Southwest  Level FlightAware Approximate
Sat 10:20:00 PM 47.5232 147.5795 223° Southwest  Level FlightAware Approximate
Sat 10:21:00 PM 47.4273 147.4466 223° Southwest  Level FlightAware Approximate
Sat 10:22:00 PM 47.3313 147.3142 223° Southwest  Level FlightAware Approximate
Sat 10:23:00 PM 47.2352 147.1823 223° Southwest  Level FlightAware Approximate
Sat 10:24:00 PM 47.1389 147.0508 223° Southwest  Level FlightAware Approximate
Sat 10:25:00 PM 47.0424 146.9198 223° Southwest  Level FlightAware Approximate
Sat 10:26:00 PM 46.9458 146.7893 223° Southwest  Level FlightAware Approximate
Sat 10:27:00 PM 46.8496 146.6584 223° Southwest  Level FlightAware Approximate
Sat 10:28:00 PM 46.7534 146.5278 223° Southwest  Level FlightAware Approximate
Sat 10:29:00 PM 46.6570 146.3975 223° Southwest  Level FlightAware Approximate
Sat 10:30:00 PM 46.5608 146.2681 223° Southwest  Level FlightAware Approximate
Sat 10:31:00 PM 46.4645 146.1392 223° Southwest  Level FlightAware Approximate
Sat 10:32:00 PM 46.3680 146.0108 223° Southwest  Level FlightAware Approximate
Sat 10:33:00 PM 46.2713 145.8828 222° Southwest  Level FlightAware Approximate
Sat 10:34:00 PM 46.1745 145.7552 222° Southwest  Level FlightAware Approximate
Sat 10:35:00 PM 46.0776 145.6281 222° Southwest  Level FlightAware Approximate
Sat 10:36:00 PM 45.9806 145.5014 222° Southwest  Level FlightAware Approximate
Sat 10:37:00 PM 45.8824 145.3768 221° Southwest  Level FlightAware Approximate
Sat 10:38:00 PM 45.7840 145.2528 221° Southwest  Level FlightAware Approximate
Sat 10:39:00 PM 45.6854 145.1293 221° Southwest  Level FlightAware Approximate
Sat 10:39:07 PM 45.7350 145.2010 221° Southwest 451 519 38,000  Level FlightAware ADS-B
Sat 10:39:52 PM 45.6620 145.1100 221° Southwest 450 518 38,000  Level FlightAware ADS-B
Sat 10:40:27 PM 45.6050 145.0390 221° Southwest 451 519 38,000  Level FlightAware ADS-B
Sat 10:41:07 PM 45.5470 144.9660 221° Southwest 451 519 38,000  Level FlightAware ADS-B
Sat 10:41:57 PM 45.4640 144.8620 221° Southwest 451 519 38,000  Level FlightAware ADS-B
Sat 10:42:37 PM 45.3990 144.7820 221° Southwest 451 519 38,000  Level FlightAware ADS-B
Sat 10:43:22 PM 45.3290 144.6950 221° Southwest 449 517 38,000  Level FlightAware ADS-B
Sat 10:44:02 PM 45.2660 144.6180 221° Southwest 449 517 38,000  Level FlightAware ADS-B
Sat 10:44:42 PM 45.2010 144.5380 221° Southwest 448 516 38,000  Level FlightAware ADS-B
Sat 10:45:27 PM 45.1310 144.4520 221° Southwest 447 514 38,000  Level FlightAware ADS-B
Sat 10:46:07 PM 45.0670 144.3740 221° Southwest 452 520 38,000  Level FlightAware ADS-B
Sat 10:46:52 PM 44.9970 144.2890 221° Southwest 450 518 38,000  Level FlightAware ADS-B
Sat 10:47:32 PM 44.9340 144.2080 222° Southwest 449 517 38,000  Level FlightAware ADS-B
Sat 10:48:17 PM 44.8670 144.1180 224° Southwest 442 509 38,000  Level FlightAware ADS-B
Sat 10:48:57 PM 44.8060 144.0390 223° Southwest 443 510 38,000  Level FlightAware ADS-B
Sat 10:49:37 PM 44.7450 143.9590 223° Southwest 443 510 38,000  Level FlightAware ADS-B
Sat 10:50:22 PM 44.6750 143.8730 221° Southwest 443 510 38,000  Level FlightAware ADS-B
Sat 10:51:02 PM 44.6110 143.7990 219° Southwest 443 510 38,000  Level FlightAware ADS-B
Sat 10:51:47 PM 44.5380 143.7180 218° Southwest 449 517 38,000  Level FlightAware ADS-B
Sat 10:52:27 PM 44.4720 143.6460 218° Southwest 450 518 38,000  Level FlightAware ADS-B
Sat 10:53:07 PM 44.4060 143.5740 218° Southwest 450 518 38,000  Level FlightAware ADS-B
Sat 10:53:52 PM 44.3330 143.4940 218° Southwest 452 520 38,000  Level FlightAware ADS-B
Sat 10:54:32 PM 44.2660 143.4210 218° Southwest 455 524 38,000  Level FlightAware ADS-B
Sat 10:55:17 PM 44.1920 143.3400 218° Southwest 451 519 38,000  Level FlightAware ADS-B
Sat 10:55:57 PM 44.1240 143.2650 218° Southwest 452 520 38,000  Level FlightAware ADS-B
Sat 10:57:07 PM 44.0090 143.1410 218° Southwest 455 524 38,000  Level FlightAware ADS-B
Sat 10:57:47 PM 43.9420 143.0690 218° Southwest 456 525 38,000  Level FlightAware ADS-B
Sat 10:58:32 PM 43.8630 142.9830 218° Southwest 456 525 38,000  Level FlightAware ADS-B
Sat 10:59:07 PM 43.8040 142.9200 218° Southwest 455 524 38,000  Level FlightAware ADS-B
Sat 10:59:52 PM 43.7290 142.8390 218° Southwest 455 524 38,000  Level FlightAware ADS-B
Sat 11:00:37 PM 43.6570 142.7620 218° Southwest 454 522 38,000  Level FlightAware ADS-B
Sat 11:01:17 PM 43.5860 142.6870 217° Southwest 453 521 38,000  Level FlightAware ADS-B
Sat 11:02:02 PM 43.5080 142.6040 218° Southwest 451 519 38,000  Level FlightAware ADS-B
Sat 11:02:42 PM 43.4430 142.5360 217° Southwest 451 519 38,000  Level FlightAware ADS-B
Sat 11:03:22 PM 43.3740 142.4630 218° Southwest 451 519 38,000  Level FlightAware ADS-B
Sat 11:04:07 PM 43.2970 142.3820 217° Southwest 452 520 38,000  Level FlightAware ADS-B
Sat 11:04:47 PM 43.2300 142.3120 217° Southwest 453 521 38,000  Level FlightAware ADS-B
Sat 11:05:32 PM 43.1530 142.2310 218° Southwest 461 531 38,000  Level FlightAware ADS-B
Sat 11:06:12 PM 43.0840 142.1590 217° Southwest 461 531 38,000  Level FlightAware ADS-B
Sat 11:06:52 PM 43.0160 142.0890 217° Southwest 462 532 38,000  Level FlightAware ADS-B
Sat 11:08:42 PM 42.8360 141.9020 217° Southwest 461 531 38,000  Level FlightAware ADS-B
Sat 11:09:52 PM 42.7170 141.7800 217° Southwest 453 521 38,000  Level FlightAware ADS-B
Sat 11:11:02 PM 42.5970 141.6580 217° Southwest 459 528 38,000  Level FlightAware ADS-B
Sat 11:12:12 PM 42.4800 141.5380 217° Southwest 452 520 38,000  Level FlightAware ADS-B
Sat 11:13:27 PM 42.3520 141.4090 217° Southwest 458 527 38,000  Level FlightAware ADS-B
Sat 11:14:37 PM 42.2330 141.2890 217° Southwest 457 526 38,000  Level FlightAware ADS-B
Sat 11:15:47 PM 42.1150 141.1710 217° Southwest 457 526 38,000  Level FlightAware ADS-B
Sat 11:16:27 PM 42.0460 141.1020 217° Southwest 449 517 38,000  Level FlightAware ADS-B
Sat 11:17:07 PM 41.9800 141.0360 217° Southwest 448 516 38,000  Level FlightAware ADS-B
Sat 11:17:52 PM 41.9030 140.9590 217° Southwest 446 513 38,000  Level FlightAware ADS-B
Sat 11:18:32 PM 41.8360 140.8930 216° Southwest 445 512 38,000  Level FlightAware ADS-B
Sat 11:19:17 PM 41.7580 140.8220 214° Southwest 449 517 38,000  Level FlightAware ADS-B
Sat 11:19:57 PM 41.6840 140.7700 208° Southwest 451 519 38,000  Level FlightAware ADS-B
Sat 11:20:42 PM 41.5990 140.7110 207° Southwest 450 518 38,000  Level FlightAware ADS-B
Sat 11:21:22 PM 41.5210 140.6580 207° Southwest 451 519 38,000  Level FlightAware ADS-B
Sat 11:22:02 PM 41.4510 140.6090 208° Southwest 451 519 38,000  Level FlightAware ADS-B
Sat 11:22:47 PM 41.3640 140.5490 207° Southwest 450 518 38,000  Level FlightAware ADS-B
Sat 11:24:27 PM 41.1720 140.4180 207° Southwest 457 526 38,000  Level FlightAware ADS-B
Sat 11:25:22 PM 41.0780 140.3540 207° Southwest 453 521 38,000  Level FlightAware ADS-B
Sat 11:26:02 PM 40.9970 140.2990 207° Southwest 453 521 38,000  Level FlightAware ADS-B
Sat 11:27:27 PM 40.8420 140.1950 207° Southwest 450 518 38,000  Level FlightAware ADS-B
Sat 11:28:07 PM 40.7720 140.1470 207° Southwest 450 518 38,000  Level FlightAware ADS-B
Sat 11:28:52 PM 40.6880 140.0910 207° Southwest 449 517 38,000  Level FlightAware ADS-B
Sat 11:29:32 PM 40.6060 140.0360 207° Southwest 450 518 38,000  Level FlightAware ADS-B
Sat 11:30:17 PM 40.5270 139.9830 207° Southwest 449 517 38,000  Level FlightAware ADS-B
Sat 11:30:57 PM 40.4510 139.9330 207° Southwest 449 517 38,000  Level FlightAware ADS-B
Sat 11:31:37 PM 40.3800 139.8850 207° Southwest 441 507 38,000  Level FlightAware ADS-B
Sat 11:32:47 PM 40.2510 139.7980 207° Southwest 439 505 38,000  Level FlightAware ADS-B
Sat 11:33:27 PM 40.1740 139.7460 207° Southwest 438 504 38,000  Level FlightAware ADS-B
Sat 11:34:12 PM 40.0910 139.6910 207° Southwest 438 504 38,000  Level FlightAware ADS-B
Sat 11:34:52 PM 40.0230 139.6450 207° Southwest 447 514 38,000  Level FlightAware ADS-B
Sat 11:35:37 PM 39.9330 139.5880 206° Southwest 448 516 38,000  Level FlightAware ADS-B
Sat 11:36:17 PM 39.8610 139.5410 207° Southwest 447 514 38,000  Level FlightAware ADS-B
Sat 11:36:57 PM 39.7840 139.4910 207° Southwest 448 516 38,000  Level FlightAware ADS-B
Sat 11:37:42 PM 39.7070 139.4410 207° Southwest 449 517 38,000  Level FlightAware ADS-B
Sat 11:38:22 PM 39.6280 139.3910 206° Southwest 449 517 38,000  Level FlightAware ADS-B
Sat 11:39:07 PM 39.5450 139.3370 207° Southwest 449 517 38,000  Level FlightAware ADS-B
Sat 11:39:42 PM 39.4880 139.3000 207° Southwest 449 517 38,000  Level FlightAware ADS-B
Sat 11:40:32 PM 39.3850 139.2350 206° Southwest 449 517 38,000  Level FlightAware ADS-B
Sat 11:41:07 PM 39.3280 139.1980 207° Southwest 450 518 38,000  Level FlightAware ADS-B
Sat 11:41:57 PM 39.2260 139.1330 206° Southwest 453 521 38,000  Level FlightAware ADS-B
Sat 11:42:37 PM 39.1560 139.0890 206° Southwest 446 513 38,000  Level FlightAware ADS-B
Sat 11:43:32 PM 39.0540 139.0250 206° Southwest 455 524 38,000  Level FlightAware ADS-B
Sat 11:44:17 PM 38.9670 138.9690 207° Southwest 455 524 38,000  Level FlightAware ADS-B
Sat 11:44:57 PM 38.8970 138.9260 206° Southwest 454 522 38,000  Level FlightAware ADS-B
Sat 11:45:42 PM 38.8090 138.8700 206° Southwest 453 521 38,000  Level FlightAware ADS-B
Sat 11:46:17 PM 38.7400 138.8270 206° Southwest 453 521 38,000  Level FlightAware ADS-B
Sat 11:47:02 PM 38.6570 138.7750 206° Southwest 453 521 38,000  Level FlightAware ADS-B
Sat 11:47:47 PM 38.5760 138.7250 206° Southwest 453 521 38,000  Level FlightAware ADS-B
Sat 11:48:22 PM 38.5070 138.6820 206° Southwest 453 521 38,000  Level FlightAware ADS-B
Sat 11:49:07 PM 38.4260 138.6310 206° Southwest 453 521 38,000  Level FlightAware ADS-B
Sat 11:49:52 PM 38.3430 138.5810 205° Southwest 452 520 38,000  Level FlightAware ADS-B
Sat 11:50:32 PM 38.2600 138.5290 206° Southwest 453 521 38,000  Level FlightAware ADS-B
Sat 11:51:17 PM 38.1750 138.4770 206° Southwest 453 521 38,000  Level FlightAware ADS-B
Sat 11:51:57 PM 38.1040 138.4330 206° Southwest 451 519 38,000  Level FlightAware ADS-B
Sat 11:52:42 PM 38.0390 138.3490 226° Southwest 433 498 38,000  Level FlightAware ADS-B
Sat 11:53:17 PM 38.0060 138.2760 240° Southwest 433 498 38,000  Level FlightAware ADS-B
Sat 11:54:02 PM 37.9600 138.1690 241° Southwest 433 498 38,000  Level FlightAware ADS-B
Sat 11:54:47 PM 37.9160 138.0690 241° Southwest 432 497 38,000  Level FlightAware ADS-B
Sat 11:55:27 PM 37.8780 137.9840 240° Southwest 432 497 38,000  Level FlightAware ADS-B
Sat 11:56:07 PM 37.8380 137.8940 241° Southwest 432 497 38,000  Level FlightAware ADS-B
Sat 11:56:52 PM 37.7940 137.7970 240° Southwest 431 496 38,000  Level FlightAware ADS-B
Sat 11:57:32 PM 37.7540 137.7080 240° Southwest 430 495 38,000  Level FlightAware ADS-B
Sat 11:58:12 PM 37.7160 137.6240 240° Southwest 430 495 38,000  Level FlightAware ADS-B
Sat 11:58:57 PM 37.6720 137.5240 241° Southwest 429 494 38,000  Level FlightAware ADS-B
Sat 11:59:37 PM 37.6330 137.4390 240° Southwest 428 493 38,000  Level FlightAware ADS-B
Sun 12:00:17 AM 37.5930 137.3520 240° Southwest 427 491 38,000  Level FlightAware ADS-B
Sun 12:01:02 AM 37.5490 137.2540 240° Southwest 426 490 38,000  Level FlightAware ADS-B
Sun 12:01:47 AM 37.5050 137.1580 240° Southwest 426 490 38,000  Level FlightAware ADS-B
Sun 12:02:27 AM 37.4660 137.0720 240° Southwest 425 489 38,000  Level FlightAware ADS-B
Sun 12:03:12 AM 37.4210 136.9750 240° Southwest 425 489 38,000  Level FlightAware ADS-B
Sun 12:03:52 AM 37.3820 136.8900 240° Southwest 424 488 38,000  Level FlightAware ADS-B
Sun 12:04:32 AM 37.3420 136.8040 240° Southwest 424 488 38,000  Level FlightAware ADS-B
Sun 12:05:17 AM 37.2990 136.7090 240° Southwest 424 488 38,000  Level FlightAware ADS-B
Sun 12:05:57 AM 37.2600 136.6250 240° Southwest 424 488 38,000  Level FlightAware ADS-B
Sun 12:06:42 AM 37.2150 136.5290 240° Southwest 425 489 38,000  Level FlightAware ADS-B
Sun 12:07:22 AM 37.1760 136.4440 240° Southwest 425 489 38,000  Level FlightAware ADS-B
Sun 12:08:02 AM 37.1360 136.3600 239° Southwest 426 490 38,000  Level FlightAware ADS-B
Sun 12:08:47 AM 37.0950 136.2720 240° Southwest 426 490 38,000  Level FlightAware ADS-B
Sun 12:09:27 AM 37.0530 136.1820 240° Southwest 427 491 38,000  Level FlightAware ADS-B
Sun 12:10:12 AM 37.0110 136.0920 240° Southwest 426 490 38,000  Level FlightAware ADS-B
Sun 12:10:52 AM 36.9660 135.9970 239° Southwest 426 490 38,000  Level FlightAware ADS-B
Sun 12:11:32 AM 36.9280 135.9180 239° Southwest 426 490 38,000  Level FlightAware ADS-B
Sun 12:12:17 AM 36.8810 135.8190 239° Southwest 426 490 38,000  Level FlightAware ADS-B
Sun 12:12:57 AM 36.8420 135.7370 239° Southwest 426 490 38,000  Level FlightAware ADS-B
Sun 12:13:37 AM 36.8010 135.6510 239° Southwest 426 490 38,000  Level FlightAware ADS-B
Sun 12:14:22 AM 36.7550 135.5540 239° Southwest 426 490 38,000  Level FlightAware ADS-B
Sun 12:15:02 AM 36.7160 135.4740 239° Southwest 426 490 38,000  Level FlightAware ADS-B
Sun 12:15:47 AM 36.6690 135.3760 239° Southwest 425 489 38,000  Level FlightAware ADS-B
Sun 12:16:27 AM 36.6290 135.2930 239° Southwest 425 489 38,000  Level FlightAware ADS-B
Sun 12:17:07 AM 36.5890 135.2100 239° Southwest 425 489 38,000  Level FlightAware ADS-B
Sun 12:17:52 AM 36.5420 135.1140 239° Southwest 426 490 38,000  Level FlightAware ADS-B
Sun 12:18:32 AM 36.5030 135.0330 239° Southwest 425 489 38,000  Level FlightAware ADS-B
Sun 12:19:17 AM 36.4580 134.9400 239° Southwest 426 490 38,000  Level FlightAware ADS-B
Sun 12:19:57 AM 36.4160 134.8540 239° Southwest 425 489 38,000  Level FlightAware ADS-B
Sun 12:20:37 AM 36.3750 134.7700 239° Southwest 425 489 38,000  Level FlightAware ADS-B
Sun 12:21:17 AM 36.3340 134.6870 239° Southwest 426 490 38,000  Level FlightAware ADS-B
Sun 12:22:02 AM 36.2860 134.5900 238° Southwest 426 490 38,000  Level FlightAware ADS-B
Sun 12:22:47 AM 36.2470 134.4950 243° Southwest 424 488 38,000  Level FlightAware ADS-B
Sun 12:23:27 AM 36.2310 134.4060 257° West 426 490 38,000  Level FlightAware ADS-B
Sun 12:24:07 AM 36.2210 134.3030 263° West 426 490 38,000  Level FlightAware ADS-B
Sun 12:24:42 AM 36.2140 134.2260 264° West 427 491 38,000  Level FlightAware ADS-B
Sun 12:25:32 AM 36.2020 134.1000 263° West 427 491 38,000  Level FlightAware ADS-B
Sun 12:26:17 AM 36.1910 133.9930 263° West 426 490 38,000  Level FlightAware ADS-B
Sun 12:26:57 AM 36.1810 133.8860 263° West 425 489 38,000  Level FlightAware ADS-B
Sun 12:27:37 AM 36.1720 133.8020 262° West 425 489 38,000  Level FlightAware ADS-B
Sun 12:28:22 AM 36.1610 133.6900 263° West 425 489 38,000  Level FlightAware ADS-B
Sun 12:29:02 AM 36.1510 133.5930 263° West 423 487 38,000  Level FlightAware ADS-B
Sun 12:29:47 AM 36.1400 133.4860 263° West 423 487 38,000  Level FlightAware ADS-B
Sun 12:30:27 AM 36.1300 133.3890 263° West 422 486 38,000  Level FlightAware ADS-B
Sun 12:31:07 AM 36.1200 133.2930 263° West 422 486 38,000  Level FlightAware ADS-B
Sun 12:31:52 AM 36.1090 133.1860 263° West 420 483 38,000  Level FlightAware ADS-B
Sun 12:32:32 AM 36.0990 133.0900 263° West 422 486 38,000  Level FlightAware ADS-B
Sun 12:33:17 AM 36.0870 132.9830 262° West 421 484 38,000  Level FlightAware ADS-B
Sun 12:33:57 AM 36.0770 132.8870 263° West 422 486 38,000  Level FlightAware ADS-B
Sun 12:34:42 AM 36.0650 132.7780 262° West 422 486 38,000  Level FlightAware ADS-B
Sun 12:35:22 AM 36.0550 132.6840 263° West 422 486 38,000  Level FlightAware ADS-B
Sun 12:36:02 AM 36.0450 132.5880 263° West 422 486 38,000  Level FlightAware ADS-B
Sun 12:36:47 AM 36.0330 132.4800 262° West 424 488 38,000  Level FlightAware ADS-B
Sun 12:37:27 AM 36.0220 132.3830 262° West 423 487 38,000  Level FlightAware ADS-B
Sun 12:38:12 AM 36.0100 132.2770 262° West 423 487 38,000  Level FlightAware ADS-B
Sun 12:38:52 AM 35.9990 132.1800 262° West 423 487 38,000  Level FlightAware ADS-B
Sun 12:39:32 AM 35.9880 132.0840 262° West 422 486 38,000  Level FlightAware ADS-B
Sun 12:40:12 AM 35.9770 131.9890 262° West 422 486 38,000  Level FlightAware ADS-B
Sun 12:40:57 AM 35.9650 131.8830 262° West 421 484 38,000  Level FlightAware ADS-B
Sun 12:41:37 AM 35.9540 131.7870 262° West 420 483 38,000  Level FlightAware ADS-B
Sun 12:42:22 AM 35.9410 131.6800 261° West 420 483 38,000  Level FlightAware ADS-B
Sun 12:43:02 AM 35.9300 131.5870 262° West 420 483 38,000  Level FlightAware ADS-B
Sun 12:43:47 AM 35.9170 131.4800 261° West 421 484 38,000  Level FlightAware ADS-B
Sun 12:44:27 AM 35.9050 131.3830 261° West 422 486 38,000  Level FlightAware ADS-B
Sun 12:45:07 AM 35.8940 131.2890 262° West 423 487 38,000  Level FlightAware ADS-B
Sun 12:45:52 AM 35.8810 131.1800 262° West 424 488 38,000  Level FlightAware ADS-B
Sun 12:46:32 AM 35.8690 131.0850 261° West 423 487 38,000  Level FlightAware ADS-B
Sun 12:47:17 AM 35.8560 130.9770 262° West 422 486 38,000  Level FlightAware ADS-B
Sun 12:47:57 AM 35.8440 130.8830 261° West 422 486 38,000  Level FlightAware ADS-B
Sun 12:48:32 AM 35.8340 130.8030 261° West 423 487 38,000  Level FlightAware ADS-B
Sun 12:49:17 AM 35.8210 130.7060 261° West 423 487 38,000  Level FlightAware ADS-B
Sun 12:49:57 AM 35.8110 130.6250 261° West 423 487 38,000  Level FlightAware ADS-B
Sun 12:50:47 AM 35.7980 130.5240 261° West 423 487 38,000  Level FlightAware ADS-B
Sun 12:51:27 AM 35.7880 130.4430 261° West 423 487 38,000  Level FlightAware ADS-B
Sun 12:52:07 AM 35.7770 130.3620 261° West 423 487 38,000  Level FlightAware ADS-B
Sun 12:52:47 AM 35.7670 130.2810 261° West 423 487 38,000  Level FlightAware ADS-B
Sun 12:53:27 AM 35.7560 130.2000 261° West 423 487 38,000 -882 Level FlightAware ADS-B
Sun 12:56:00 AM 35.9226 129.8401 300° West  Level FlightAware Approximate
Sun 12:57:00 AM 35.9897 129.7000 277° West  Level Estimated
Sun 12:58:00 AM 35.9738 129.5383 263° West  Level FlightAware Approximate
Sun 12:59:00 AM 36.0436 129.4002 306° West  Level Estimated
Sun 01:00:00 AM 36.1144 129.2627 303° West  Level FlightAware Approximate
Sun 01:01:00 AM 36.1850 129.1249 302° West  Level FlightAware Approximate
Sun 01:02:00 AM 36.2554 128.9871 302° West  Level FlightAware Approximate
Sun 01:03:00 AM 36.3243 128.8481 310° West  Level Estimated
Sun 01:04:00 AM 36.3931 128.7088 303° West  Level Estimated
Sun 01:05:00 AM 36.4692 128.5755 305° West  Level FlightAware Approximate
Sun 01:06:00 AM 36.5372 128.4353 313° West  Level Estimated
Sun 01:07:00 AM 36.6049 128.2949 307° West  Level Estimated
Sun 01:08:00 AM 36.6961 128.1767 314° West  Level FlightAware Approximate
Sun 01:09:00 AM 36.7615 128.0342 302° West  Level Estimated
Sun 01:10:00 AM 36.8266 127.8915 308° West  Level Estimated
Sun 01:11:00 AM 36.8916 127.7486 304° West  Level Estimated
Sun 01:12:00 AM 36.9565 127.6054 296° West  Level Estimated
Sun 01:13:00 AM 37.0395 127.4779 309° West  Level FlightAware Approximate
Sun 01:14:00 AM 37.1011 127.3325 295° West  Level Estimated
Sun 01:15:00 AM 37.1750 127.1962 304° West  Level FlightAware Approximate
Sun 01:15:27 AM 37.0200 127.6390 304° West 325 374 18,000  Level FlightAware ADS-B
Sun 01:16:07 AM 37.0540 127.5780 305° West 325 374 18,000  Level FlightAware ADS-B
Sun 01:16:52 AM 37.0940 127.5060 305° West 323 372 18,000  Level FlightAware ADS-B
Sun 01:17:32 AM 37.1300 127.4430 306° West 320 368 18,000  Level FlightAware ADS-B
Sun 01:18:12 AM 37.1630 127.3830 305° West 320 368 18,000 -565 Level FlightAware ADS-B
Sun 01:18:57 AM 37.2020 127.3120 305° West 317 365 17,200 -1,412 Descending FlightAware ADS-B
Sun 01:19:37 AM 37.2360 127.2520 305° West 319 367 16,000 -1,650 Descending FlightAware ADS-B
Sun 01:20:17 AM 37.2690 127.1910 304° West 311 358 15,000 -522 Descending FlightAware ADS-B
Sun 01:21:32 AM 37.3310 127.0800 305° West 310 357 15,000 -338 Level FlightAware ADS-B
Sun 01:22:57 AM 37.3940 126.9650 305° West 302 348 14,100 -982 Descending FlightAware ADS-B
Sun 01:23:22 AM 37.4070 126.9250 292° West 300 345 13,200 -1,971 Descending FlightAware ADS-B
Sun 01:24:07 AM 37.4100 126.8390 273° West 294 338 11,800 -1,667 Descending FlightAware ADS-B
Sun 01:24:52 AM 37.4120 126.7620 272° West 281 323 10,700 -1,059 Descending FlightAware ADS-B
Sun 01:25:32 AM 37.4150 126.7010 274° West 254 292 10,300 -525 Descending FlightAware ADS-B
Sun 01:26:12 AM 37.4180 126.6440 274° West 249 287 10,000 -450 Descending FlightAware ADS-B
Sun 01:26:52 AM 37.4200 126.5870 273° West 248 285 9,700 -1,015 Descending FlightAware ADS-B
Sun 01:27:17 AM 37.4230 126.5520 276° West 229 264 8,900 -1,467 Descending FlightAware ADS-B
Sun 01:27:37 AM 37.4250 126.5290 276° West 223 257 8,600 -1,200 Descending FlightAware ADS-B
Sun 01:28:07 AM 37.4340 126.4880 285° West 222 255 7,900 -764 Descending FlightAware ADS-B
Sun 01:28:32 AM 37.4400 126.4590 285° West 222 255 7,900 -1,080 Level FlightAware ADS-B
Sun 01:28:57 AM 37.4480 126.4300 289° West 222 255 7,000 -1,700 Descending FlightAware ADS-B
Sun 01:29:32 AM 37.4580 126.3860 286° West 223 257 6,200 -1,400 Descending FlightAware ADS-B
Sun 01:29:57 AM 37.4670 126.3520 288° West 221 254 5,600 -764 Descending FlightAware ADS-B
Sun 01:30:27 AM 37.4750 126.3190 287° West 220 253 5,500 -200 Descending FlightAware ADS-B
Sun 01:31:17 AM 37.5110 126.2800 319° Northwest 4,300 -1,440 Descending FlightAware ADS-B
Sun 01:33:00 AM 37.4691 126.4505 107° East  Level Estimated
Sun 01:34:00 AM 37.4691 126.4505 335° Northwest  Level Estimated
Sun 01:35:00 AM 37.4691 126.4505 335° Northwest  Level Estimated
Sun 01:36:00 AM 37.4691 126.4505 335° Northwest  Level Estimated
Sun 01:37:00 AM 37.4691 126.4505 335° Northwest  Level Estimated
Sun 01:38:00 AM 37.4691 126.4505 335° Northwest  Level Estimated
Sun 01:39:00 AM 37.4691 126.4505 335° Northwest  Level Estimated
Sun 01:40:00 AM 37.4691 126.4505 335° Northwest  Level Estimated
Sun 01:41:00 AM 37.4691 126.4505 335° Northwest  Level Estimated
Sun 01:42:00 AM 37.4691 126.4505 335° Northwest  Level Estimated
Sun 01:43:00 AM 37.4691 126.4505 335° Northwest  Level Estimated
Sun 01:44:00 AM 37.4691 126.4505 335° Northwest  Level Estimated
Sun 01:45:00 AM 37.4691 126.4505 335° Northwest  Level Estimated
Sun 01:46:00 AM 37.4691 126.4505 335° Northwest  Level Estimated
Sun 01:47:00 AM 37.4691 126.4505 335° Northwest  Level Estimated
Sun 01:48:00 AM 37.4691 126.4505 335° Northwest  Level Estimated
Sun 01:49:00 AM 37.4691 126.4505 335° Northwest  Level Estimated
Sun 01:50:00 AM 37.4691 126.4505 335° Northwest  Level Estimated

Login

Don't have an account? Register now (free) for customized features, flight alerts, and more!